Página principal
METAR-TAF:

METAR-TAF

Aeroportos :

Aeroporto Internacional Nouakchott-Oumtounsy

Nouakchott, Mauritânia

latitude: 18-18-36N, longitude: 015-58-11W, altura: 3 m

Observação actual do tempo

O boletim foi feito há 47 minutos, às 23:00 UTC
Vento 9 kt de norte
Temperatura 26°C
Humidade 37%
Pressão 1010 hPa
Visibilidade 10 km ou mais
sem nuvens abaixo de 1500 metros e sem cumulonimbus

METAR: GQNO 152300Z 36009KT CAVOK 26/10 Q1010 NOSIG

Hora: 23:47 (23:47 UTC)

Previsão

O boletim foi feito há 6 horas e 47 minutos, às 17:00 UTC
Previsão válida de 15 às 18 UTC a 16 às 24 UTC
Vento 8 kt de nor-noroeste
Visibilidade: 8000 m
Tornando-se
de 15 às 03 UTC a 15 às 05 UTC
Vento 10 kt de nor-nordeste

TAF: GQNO 151700Z 1518/1624 33008KT 8000 NSC BECMG 1503/1505 03010KT

Observações e previsões do tempo de mais de 4000 aeroportos (mensagens METAR e TAF).

As estações disponíveis são os pontos amarelos e vermelhos sobre o mapa.

Mova o rato sobre o mapa para ver o nome da estação.

Depois clique no ponto para visualizar as observações e previsões meteorológicas.

Para alterar o mapa : clique nos botões verdes com uma cruz preta para aumentar o zoom; no botão verde com uma pitada de zoom; ou nas setas verdes para mapas adjacentes.


METAR-TAF: